sensor_id;sensor_type;location;lat;lon;timestamp;temperature;humidity
26745;DHT22;14342;50.960;13.880;2023-02-15T00:00:55;4.10;99.90
26745;DHT22;14342;50.960;13.880;2023-02-15T00:02:06;4.20;99.90
26745;DHT22;14342;50.960;13.880;2023-02-15T00:03:07;4.20;99.90
26745;DHT22;14342;50.960;13.880;2023-02-15T00:04:08;4.10;99.90
26745;DHT22;14342;50.960;13.880;2023-02-15T00:05:10;4.40;99.90
26745;DHT22;14342;50.960;13.880;2023-02-15T00:06:10;4.10;99.90
26745;DHT22;14342;50.960;13.880;2023-02-15T00:07:12;4.10;99.90
26745;DHT22;14342;50.960;13.880;2023-02-15T00:08:13;4.00;99.90
26745;DHT22;14342;50.960;13.880;2023-02-15T00:09:15;3.90;99.90
26745;DHT22;14342;50.960;13.880;2023-02-15T00:10:15;3.80;99.90
26745;DHT22;14342;50.960;13.880;2023-02-15T00:11:17;3.70;99.90
26745;DHT22;14342;50.960;13.880;2023-02-15T00:12:39;3.70;99.90
26745;DHT22;14342;50.960;13.880;2023-02-15T00:13:41;3.80;99.90
26745;DHT22;14342;50.960;13.880;2023-02-15T00:14:41;3.90;99.90
26745;DHT22;14342;50.960;13.880;2023-02-15T00:15:43;3.90;99.90
26745;DHT22;14342;50.960;13.880;2023-02-15T00:16:44;3.90;99.90
26745;DHT22;14342;50.960;13.880;2023-02-15T00:17:47;4.00;99.90
26745;DHT22;14342;50.960;13.880;2023-02-15T00:18:47;4.10;99.90
26745;DHT22;14342;50.960;13.880;2023-02-15T00:19:49;4.30;99.90
26745;DHT22;14342;50.960;13.880;2023-02-15T00:20:49;4.30;99.90
26745;DHT22;14342;50.960;13.880;2023-02-15T00:21:51;4.40;99.90
26745;DHT22;14342;50.960;13.880;2023-02-15T00:22:52;4.40;99.90
26745;DHT22;14342;50.960;13.880;2023-02-15T00:23:53;4.40;99.90
26745;DHT22;14342;50.960;13.880;2023-02-15T00:24:54;4.50;99.90
26745;DHT22;14342;50.960;13.880;2023-02-15T00:26:02;4.60;99.90
26745;DHT22;14342;50.960;13.880;2023-02-15T00:27:03;4.60;99.90
26745;DHT22;14342;50.960;13.880;2023-02-15T00:28:05;4.60;99.90
26745;DHT22;14342;50.960;13.880;2023-02-15T00:29:05;4.50;99.90
26745;DHT22;14342;50.960;13.880;2023-02-15T00:30:07;4.50;99.90
26745;DHT22;14342;50.960;13.880;2023-02-15T00:31:09;4.40;99.90
26745;DHT22;14342;50.960;13.880;2023-02-15T00:32:11;4.40;99.90
26745;DHT22;14342;50.960;13.880;2023-02-15T00:33:14;4.40;99.90
26745;DHT22;14342;50.960;13.880;2023-02-15T00:34:15;4.40;99.90
26745;DHT22;14342;50.960;13.880;2023-02-15T00:35:16;4.60;99.90
26745;DHT22;14342;50.960;13.880;2023-02-15T00:36:17;4.60;99.90
26745;DHT22;14342;50.960;13.880;2023-02-15T00:37:18;4.60;99.90
26745;DHT22;14342;50.960;13.880;2023-02-15T00:38:19;4.70;99.90
26745;DHT22;14342;50.960;13.880;2023-02-15T00:39:21;4.90;99.90
26745;DHT22;14342;50.960;13.880;2023-02-15T00:40:21;4.70;99.90
26745;DHT22;14342;50.960;13.880;2023-02-15T00:41:23;4.70;99.90
26745;DHT22;14342;50.960;13.880;2023-02-15T00:42:24;4.80;99.90
26745;DHT22;14342;50.960;13.880;2023-02-15T00:43:26;4.90;99.90
26745;DHT22;14342;50.960;13.880;2023-02-15T00:44:26;5.10;99.90
26745;DHT22;14342;50.960;13.880;2023-02-15T00:45:28;5.20;99.90
26745;DHT22;14342;50.960;13.880;2023-02-15T00:46:29;5.30;99.90
26745;DHT22;14342;50.960;13.880;2023-02-15T00:47:30;5.40;99.90
26745;DHT22;14342;50.960;13.880;2023-02-15T00:48:32;5.30;99.90
26745;DHT22;14342;50.960;13.880;2023-02-15T00:49:34;5.20;99.90
26745;DHT22;14342;50.960;13.880;2023-02-15T00:50:34;5.20;99.90
26745;DHT22;14342;50.960;13.880;2023-02-15T00:51:36;5.00;99.90
26745;DHT22;14342;50.960;13.880;2023-02-15T00:52:37;4.80;99.90
26745;DHT22;14342;50.960;13.880;2023-02-15T00:53:38;4.80;99.90
26745;DHT22;14342;50.960;13.880;2023-02-15T00:54:39;4.60;99.90
26745;DHT22;14342;50.960;13.880;2023-02-15T00:55:40;4.50;99.90
26745;DHT22;14342;50.960;13.880;2023-02-15T00:56:41;4.30;99.90
26745;DHT22;14342;50.960;13.880;2023-02-15T00:57:43;4.20;99.90
26745;DHT22;14342;50.960;13.880;2023-02-15T00:58:43;4.10;99.90
26745;DHT22;14342;50.960;13.880;2023-02-15T00:59:45;4.20;99.90
26745;DHT22;14342;50.960;13.880;2023-02-15T01:00:46;3.90;99.90
26745;DHT22;14342;50.960;13.880;2023-02-15T01:01:48;3.80;99.90
26745;DHT22;14342;50.960;13.880;2023-02-15T01:02:49;3.70;99.90
26745;DHT22;14342;50.960;13.880;2023-02-15T01:03:51;3.60;99.90
26745;DHT22;14342;50.960;13.880;2023-02-15T01:04:53;3.50;99.90
26745;DHT22;14342;50.960;13.880;2023-02-15T01:05:53;3.50;99.90
26745;DHT22;14342;50.960;13.880;2023-02-15T01:06:55;3.50;99.90
26745;DHT22;14342;50.960;13.880;2023-02-15T01:07:56;3.40;99.90
26745;DHT22;14342;50.960;13.880;2023-02-15T01:08:57;3.30;99.90
26745;DHT22;14342;50.960;13.880;2023-02-15T01:09:58;3.30;99.90
26745;DHT22;14342;50.960;13.880;2023-02-15T01:11:02;3.30;99.90
26745;DHT22;14342;50.960;13.880;2023-02-15T01:12:04;3.30;99.90
26745;DHT22;14342;50.960;13.880;2023-02-15T01:13:05;3.30;99.90
26745;DHT22;14342;50.960;13.880;2023-02-15T01:14:06;3.30;99.90
26745;DHT22;14342;50.960;13.880;2023-02-15T01:15:07;3.30;99.90
26745;DHT22;14342;50.960;13.880;2023-02-15T01:16:08;3.30;99.90
26745;DHT22;14342;50.960;13.880;2023-02-15T01:17:09;3.40;99.90
26745;DHT22;14342;50.960;13.880;2023-02-15T01:18:11;3.30;99.90
26745;DHT22;14342;50.960;13.880;2023-02-15T01:19:13;3.10;99.90
26745;DHT22;14342;50.960;13.880;2023-02-15T01:20:14;3.30;99.90
26745;DHT22;14342;50.960;13.880;2023-02-15T01:21:16;3.20;99.90
26745;DHT22;14342;50.960;13.880;2023-02-15T01:22:18;3.20;99.90
26745;DHT22;14342;50.960;13.880;2023-02-15T01:23:19;3.20;99.90
26745;DHT22;14342;50.960;13.880;2023-02-15T01:24:19;3.20;99.90
26745;DHT22;14342;50.960;13.880;2023-02-15T01:25:21;3.30;99.90
26745;DHT22;14342;50.960;13.880;2023-02-15T01:26:22;3.30;99.90
26745;DHT22;14342;50.960;13.880;2023-02-15T01:27:24;3.20;99.90
26745;DHT22;14342;50.960;13.880;2023-02-15T01:28:25;3.20;99.90
26745;DHT22;14342;50.960;13.880;2023-02-15T01:29:26;3.10;99.90
26745;DHT22;14342;50.960;13.880;2023-02-15T01:30:27;3.10;99.90
26745;DHT22;14342;50.960;13.880;2023-02-15T01:31:28;3.20;99.90
26745;DHT22;14342;50.960;13.880;2023-02-15T01:32:29;2.90;99.90
26745;DHT22;14342;50.960;13.880;2023-02-15T01:33:31;2.90;99.90
26745;DHT22;14342;50.960;13.880;2023-02-15T01:34:33;2.90;99.90
26745;DHT22;14342;50.960;13.880;2023-02-15T01:35:34;2.90;99.90
26745;DHT22;14342;50.960;13.880;2023-02-15T01:36:36;3.00;99.90
26745;DHT22;14342;50.960;13.880;2023-02-15T01:37:38;3.00;99.90
26745;DHT22;14342;50.960;13.880;2023-02-15T01:38:38;3.10;99.90
26745;DHT22;14342;50.960;13.880;2023-02-15T01:39:41;3.20;99.90
26745;DHT22;14342;50.960;13.880;2023-02-15T01:40:42;3.40;99.90
26745;DHT22;14342;50.960;13.880;2023-02-15T01:41:43;3.40;99.90
26745;DHT22;14342;50.960;13.880;2023-02-15T01:42:44;3.50;99.90
26745;DHT22;14342;50.960;13.880;2023-02-15T01:43:46;3.50;99.90
26745;DHT22;14342;50.960;13.880;2023-02-15T01:44:49;3.60;99.90
26745;DHT22;14342;50.960;13.880;2023-02-15T01:45:51;3.60;99.90
26745;DHT22;14342;50.960;13.880;2023-02-15T01:46:52;3.60;99.90
26745;DHT22;14342;50.960;13.880;2023-02-15T01:47:55;3.60;99.90
26745;DHT22;14342;50.960;13.880;2023-02-15T01:48:58;3.50;99.90
26745;DHT22;14342;50.960;13.880;2023-02-15T01:50:05;3.40;99.90
26745;DHT22;14342;50.960;13.880;2023-02-15T01:51:08;3.40;99.90
26745;DHT22;14342;50.960;13.880;2023-02-15T01:52:10;3.50;99.90
26745;DHT22;14342;50.960;13.880;2023-02-15T01:53:13;3.30;99.90
26745;DHT22;14342;50.960;13.880;2023-02-15T01:54:18;3.30;99.90
26745;DHT22;14342;50.960;13.880;2023-02-15T01:55:19;3.40;99.90
26745;DHT22;14342;50.960;13.880;2023-02-15T01:56:23;3.30;99.90
26745;DHT22;14342;50.960;13.880;2023-02-15T01:57:25;3.30;99.90
26745;DHT22;14342;50.960;13.880;2023-02-15T01:58:27;3.60;99.90
26745;DHT22;14342;50.960;13.880;2023-02-15T01:59:29;3.30;99.90
26745;DHT22;14342;50.960;13.880;2023-02-15T02:00:32;3.30;99.90
26745;DHT22;14342;50.960;13.880;2023-02-15T02:01:34;3.30;99.90
26745;DHT22;14342;50.960;13.880;2023-02-15T02:02:36;3.40;99.90
26745;DHT22;14342;50.960;13.880;2023-02-15T02:03:38;3.30;99.90
26745;DHT22;14342;50.960;13.880;2023-02-15T02:04:44;3.20;99.90
26745;DHT22;14342;50.960;13.880;2023-02-15T02:05:47;3.20;99.90
26745;DHT22;14342;50.960;13.880;2023-02-15T02:06:48;3.10;99.90
26745;DHT22;14342;50.960;13.880;2023-02-15T02:07:50;3.00;99.90
26745;DHT22;14342;50.960;13.880;2023-02-15T02:08:53;3.00;99.90
26745;DHT22;14342;50.960;13.880;2023-02-15T02:09:54;3.00;99.90
26745;DHT22;14342;50.960;13.880;2023-02-15T02:10:55;3.00;99.90
26745;DHT22;14342;50.960;13.880;2023-02-15T02:11:56;2.90;99.90
26745;DHT22;14342;50.960;13.880;2023-02-15T02:12:59;3.10;99.90
26745;DHT22;14342;50.960;13.880;2023-02-15T02:14:00;2.80;99.90
26745;DHT22;14342;50.960;13.880;2023-02-15T02:15:02;2.80;99.90
26745;DHT22;14342;50.960;13.880;2023-02-15T02:16:04;2.70;99.90
26745;DHT22;14342;50.960;13.880;2023-02-15T02:17:10;2.80;99.90
26745;DHT22;14342;50.960;13.880;2023-02-15T02:18:17;2.80;99.90
26745;DHT22;14342;50.960;13.880;2023-02-15T02:19:32;2.70;99.90
26745;DHT22;14342;50.960;13.880;2023-02-15T02:22:08;2.60;99.90
26745;DHT22;14342;50.960;13.880;2023-02-15T02:23:29;2.50;99.90
26745;DHT22;14342;50.960;13.880;2023-02-15T02:26:12;2.40;99.90
26745;DHT22;14342;50.960;13.880;2023-02-15T02:27:24;2.40;99.90
26745;DHT22;14342;50.960;13.880;2023-02-15T02:28:33;2.40;99.90
26745;DHT22;14342;50.960;13.880;2023-02-15T02:29:57;2.40;99.90
26745;DHT22;14342;50.960;13.880;2023-02-15T02:31:06;2.40;99.90
26745;DHT22;14342;50.960;13.880;2023-02-15T02:34:50;2.50;99.90
26745;DHT22;14342;50.960;13.880;2023-02-15T02:35:53;2.50;99.90
26745;DHT22;14342;50.960;13.880;2023-02-15T02:37:16;2.50;99.90
26745;DHT22;14342;50.960;13.880;2023-02-15T02:38:23;2.60;99.90
26745;DHT22;14342;50.960;13.880;2023-02-15T02:39:30;2.50;99.90
26745;DHT22;14342;50.960;13.880;2023-02-15T02:40:35;2.40;99.90
26745;DHT22;14342;50.960;13.880;2023-02-15T02:41:42;2.50;99.90
26745;DHT22;14342;50.960;13.880;2023-02-15T02:42:47;2.50;99.90
26745;DHT22;14342;50.960;13.880;2023-02-15T02:43:51;2.50;99.90
26745;DHT22;14342;50.960;13.880;2023-02-15T02:44:54;2.50;99.90
26745;DHT22;14342;50.960;13.880;2023-02-15T02:45:58;2.50;99.90
26745;DHT22;14342;50.960;13.880;2023-02-15T02:47:02;2.70;99.90
26745;DHT22;14342;50.960;13.880;2023-02-15T02:48:07;2.70;99.90
26745;DHT22;14342;50.960;13.880;2023-02-15T02:49:09;2.70;99.90
26745;DHT22;14342;50.960;13.880;2023-02-15T02:50:12;2.80;99.90
26745;DHT22;14342;50.960;13.880;2023-02-15T02:51:14;2.80;99.90
26745;DHT22;14342;50.960;13.880;2023-02-15T02:52:35;2.80;99.90
26745;DHT22;14342;50.960;13.880;2023-02-15T02:53:37;2.80;99.90
26745;DHT22;14342;50.960;13.880;2023-02-15T02:54:39;2.80;99.90
26745;DHT22;14342;50.960;13.880;2023-02-15T02:55:40;2.80;99.90
26745;DHT22;14342;50.960;13.880;2023-02-15T02:56:44;2.90;99.90
26745;DHT22;14342;50.960;13.880;2023-02-15T02:57:50;2.90;99.90
26745;DHT22;14342;50.960;13.880;2023-02-15T02:58:54;2.90;99.90
26745;DHT22;14342;50.960;13.880;2023-02-15T02:59:56;2.90;99.90
26745;DHT22;14342;50.960;13.880;2023-02-15T03:01:00;3.00;99.90
26745;DHT22;14342;50.960;13.880;2023-02-15T03:02:07;3.00;99.90
26745;DHT22;14342;50.960;13.880;2023-02-15T03:03:13;2.90;99.90
26745;DHT22;14342;50.960;13.880;2023-02-15T03:04:17;2.90;99.90
26745;DHT22;14342;50.960;13.880;2023-02-15T03:05:20;3.00;99.90
26745;DHT22;14342;50.960;13.880;2023-02-15T03:06:22;3.00;99.90
26745;DHT22;14342;50.960;13.880;2023-02-15T03:07:28;3.00;99.90
26745;DHT22;14342;50.960;13.880;2023-02-15T03:08:32;3.20;99.90
26745;DHT22;14342;50.960;13.880;2023-02-15T03:09:36;3.00;99.90
26745;DHT22;14342;50.960;13.880;2023-02-15T03:10:41;3.10;99.90
26745;DHT22;14342;50.960;13.880;2023-02-15T03:11:43;3.10;99.90
26745;DHT22;14342;50.960;13.880;2023-02-15T03:12:45;3.20;99.90
26745;DHT22;14342;50.960;13.880;2023-02-15T03:13:46;3.20;99.90
26745;DHT22;14342;50.960;13.880;2023-02-15T03:14:49;3.30;99.90
26745;DHT22;14342;50.960;13.880;2023-02-15T03:15:52;3.40;99.90
26745;DHT22;14342;50.960;13.880;2023-02-15T03:17:13;3.50;99.90
26745;DHT22;14342;50.960;13.880;2023-02-15T03:18:15;3.50;99.90
26745;DHT22;14342;50.960;13.880;2023-02-15T03:19:17;3.60;99.90
26745;DHT22;14342;50.960;13.880;2023-02-15T03:20:21;3.60;99.90
26745;DHT22;14342;50.960;13.880;2023-02-15T03:21:28;3.70;99.90
26745;DHT22;14342;50.960;13.880;2023-02-15T03:22:32;3.70;99.90
26745;DHT22;14342;50.960;13.880;2023-02-15T03:23:35;3.80;99.90
26745;DHT22;14342;50.960;13.880;2023-02-15T03:24:39;3.80;99.90
26745;DHT22;14342;50.960;13.880;2023-02-15T03:25:42;3.80;99.90
26745;DHT22;14342;50.960;13.880;2023-02-15T03:26:45;3.90;99.90
26745;DHT22;14342;50.960;13.880;2023-02-15T03:27:47;3.90;99.90
26745;DHT22;14342;50.960;13.880;2023-02-15T03:28:50;4.10;99.90
26745;DHT22;14342;50.960;13.880;2023-02-15T03:29:52;4.20;99.90
26745;DHT22;14342;50.960;13.880;2023-02-15T03:30:55;4.40;99.90
26745;DHT22;14342;50.960;13.880;2023-02-15T03:31:58;4.60;99.90
26745;DHT22;14342;50.960;13.880;2023-02-15T03:33:00;4.60;99.90
26745;DHT22;14342;50.960;13.880;2023-02-15T03:34:03;4.80;99.90
26745;DHT22;14342;50.960;13.880;2023-02-15T03:35:05;4.80;99.90
26745;DHT22;14342;50.960;13.880;2023-02-15T03:36:08;4.90;99.90
26745;DHT22;14342;50.960;13.880;2023-02-15T03:37:10;5.00;99.90
26745;DHT22;14342;50.960;13.880;2023-02-15T03:38:12;5.10;99.90
26745;DHT22;14342;50.960;13.880;2023-02-15T03:39:19;5.10;99.90
26745;DHT22;14342;50.960;13.880;2023-02-15T03:40:21;5.10;99.90
26745;DHT22;14342;50.960;13.880;2023-02-15T03:41:42;5.20;99.90
26745;DHT22;14342;50.960;13.880;2023-02-15T03:42:45;5.20;99.90
26745;DHT22;14342;50.960;13.880;2023-02-15T03:43:51;5.20;99.90
26745;DHT22;14342;50.960;13.880;2023-02-15T03:44:55;5.20;99.90
26745;DHT22;14342;50.960;13.880;2023-02-15T03:45:59;5.20;99.90
26745;DHT22;14342;50.960;13.880;2023-02-15T03:47:03;5.30;99.90
26745;DHT22;14342;50.960;13.880;2023-02-15T03:48:07;5.30;99.90
26745;DHT22;14342;50.960;13.880;2023-02-15T03:49:09;5.40;99.90
26745;DHT22;14342;50.960;13.880;2023-02-15T03:50:12;5.40;99.90
26745;DHT22;14342;50.960;13.880;2023-02-15T03:51:31;5.40;99.90
26745;DHT22;14342;50.960;13.880;2023-02-15T03:52:36;5.40;99.90
26745;DHT22;14342;50.960;13.880;2023-02-15T03:53:38;5.40;99.90
26745;DHT22;14342;50.960;13.880;2023-02-15T03:54:41;5.40;99.90
26745;DHT22;14342;50.960;13.880;2023-02-15T03:55:46;5.40;99.90
26745;DHT22;14342;50.960;13.880;2023-02-15T03:56:48;5.40;99.90
26745;DHT22;14342;50.960;13.880;2023-02-15T03:58:09;5.40;99.90
26745;DHT22;14342;50.960;13.880;2023-02-15T03:59:28;5.20;99.90
26745;DHT22;14342;50.960;13.880;2023-02-15T04:00:49;5.20;99.90
26745;DHT22;14342;50.960;13.880;2023-02-15T04:02:10;5.10;99.90
26745;DHT22;14342;50.960;13.880;2023-02-15T04:03:20;5.00;99.90
26745;DHT22;14342;50.960;13.880;2023-02-15T04:04:23;4.90;99.90
26745;DHT22;14342;50.960;13.880;2023-02-15T04:05:24;4.90;99.90
26745;DHT22;14342;50.960;13.880;2023-02-15T04:06:25;4.90;99.90
26745;DHT22;14342;50.960;13.880;2023-02-15T04:07:26;4.90;99.90
26745;DHT22;14342;50.960;13.880;2023-02-15T04:08:27;4.80;99.90
26745;DHT22;14342;50.960;13.880;2023-02-15T04:09:44;4.70;99.90
26745;DHT22;14342;50.960;13.880;2023-02-15T04:11:03;4.60;99.90
26745;DHT22;14342;50.960;13.880;2023-02-15T04:12:05;4.30;99.90
26745;DHT22;14342;50.960;13.880;2023-02-15T04:13:05;4.10;99.90
26745;DHT22;14342;50.960;13.880;2023-02-15T04:14:07;3.90;99.90
26745;DHT22;14342;50.960;13.880;2023-02-15T04:15:22;3.90;99.90
26745;DHT22;14342;50.960;13.880;2023-02-15T04:16:42;3.80;99.90
26745;DHT22;14342;50.960;13.880;2023-02-15T04:17:42;3.60;99.90
26745;DHT22;14342;50.960;13.880;2023-02-15T04:18:44;3.60;99.90
26745;DHT22;14342;50.960;13.880;2023-02-15T04:20:03;3.60;99.90
26745;DHT22;14342;50.960;13.880;2023-02-15T04:21:23;3.50;99.90
26745;DHT22;14342;50.960;13.880;2023-02-15T04:22:43;3.40;99.90
26745;DHT22;14342;50.960;13.880;2023-02-15T04:24:02;3.20;99.90
26745;DHT22;14342;50.960;13.880;2023-02-15T04:25:23;3.10;99.90
26745;DHT22;14342;50.960;13.880;2023-02-15T04:26:24;2.90;99.90
26745;DHT22;14342;50.960;13.880;2023-02-15T04:27:25;2.80;99.90
26745;DHT22;14342;50.960;13.880;2023-02-15T04:28:27;2.70;99.90
26745;DHT22;14342;50.960;13.880;2023-02-15T04:29:27;2.60;99.90
26745;DHT22;14342;50.960;13.880;2023-02-15T04:30:29;2.70;99.90
26745;DHT22;14342;50.960;13.880;2023-02-15T04:31:30;2.70;99.90
26745;DHT22;14342;50.960;13.880;2023-02-15T04:32:31;2.60;99.90
26745;DHT22;14342;50.960;13.880;2023-02-15T04:33:32;2.60;99.90
26745;DHT22;14342;50.960;13.880;2023-02-15T04:34:34;2.70;99.90
26745;DHT22;14342;50.960;13.880;2023-02-15T04:35:34;2.70;99.90
26745;DHT22;14342;50.960;13.880;2023-02-15T04:36:36;2.70;99.90
26745;DHT22;14342;50.960;13.880;2023-02-15T04:37:37;2.70;99.90
26745;DHT22;14342;50.960;13.880;2023-02-15T04:38:38;2.70;99.90
26745;DHT22;14342;50.960;13.880;2023-02-15T04:39:39;2.70;99.90
26745;DHT22;14342;50.960;13.880;2023-02-15T04:40:42;2.60;99.90
26745;DHT22;14342;50.960;13.880;2023-02-15T04:41:42;2.60;99.90
26745;DHT22;14342;50.960;13.880;2023-02-15T04:42:44;2.60;99.90
26745;DHT22;14342;50.960;13.880;2023-02-15T04:43:47;2.60;99.90
26745;DHT22;14342;50.960;13.880;2023-02-15T04:44:48;2.70;99.90
26745;DHT22;14342;50.960;13.880;2023-02-15T04:45:49;2.70;99.90
26745;DHT22;14342;50.960;13.880;2023-02-15T04:46:51;2.70;99.90
26745;DHT22;14342;50.960;13.880;2023-02-15T04:47:51;2.70;99.90
26745;DHT22;14342;50.960;13.880;2023-02-15T04:48:53;2.60;99.90
26745;DHT22;14342;50.960;13.880;2023-02-15T04:49:53;2.60;99.90
26745;DHT22;14342;50.960;13.880;2023-02-15T04:50:55;2.60;99.90
26745;DHT22;14342;50.960;13.880;2023-02-15T04:51:56;2.60;99.90
26745;DHT22;14342;50.960;13.880;2023-02-15T04:52:57;2.70;99.90
26745;DHT22;14342;50.960;13.880;2023-02-15T04:53:58;2.70;99.90
26745;DHT22;14342;50.960;13.880;2023-02-15T04:54:59;2.80;99.90
26745;DHT22;14342;50.960;13.880;2023-02-15T04:56:01;2.80;99.90
26745;DHT22;14342;50.960;13.880;2023-02-15T04:57:03;2.80;99.90
26745;DHT22;14342;50.960;13.880;2023-02-15T04:58:03;2.50;99.90
26745;DHT22;14342;50.960;13.880;2023-02-15T04:59:05;2.80;99.90
26745;DHT22;14342;50.960;13.880;2023-02-15T05:00:06;2.80;99.90
26745;DHT22;14342;50.960;13.880;2023-02-15T05:01:08;2.80;99.90
26745;DHT22;14342;50.960;13.880;2023-02-15T05:02:09;2.80;99.90
26745;DHT22;14342;50.960;13.880;2023-02-15T05:03:11;2.80;99.90
26745;DHT22;14342;50.960;13.880;2023-02-15T05:04:11;2.40;99.90
26745;DHT22;14342;50.960;13.880;2023-02-15T05:05:13;2.80;99.90
26745;DHT22;14342;50.960;13.880;2023-02-15T05:06:15;2.60;99.90
26745;DHT22;14342;50.960;13.880;2023-02-15T05:07:16;2.80;99.90
26745;DHT22;14342;50.960;13.880;2023-02-15T05:08:17;2.80;99.90
26745;DHT22;14342;50.960;13.880;2023-02-15T05:09:19;2.80;99.90
26745;DHT22;14342;50.960;13.880;2023-02-15T05:10:20;2.70;99.90
26745;DHT22;14342;50.960;13.880;2023-02-15T05:11:22;2.70;99.90
26745;DHT22;14342;50.960;13.880;2023-02-15T05:12:23;2.60;99.90
26745;DHT22;14342;50.960;13.880;2023-02-15T05:13:25;2.60;99.90
26745;DHT22;14342;50.960;13.880;2023-02-15T05:14:25;2.60;99.90
26745;DHT22;14342;50.960;13.880;2023-02-15T05:15:27;2.50;99.90
26745;DHT22;14342;50.960;13.880;2023-02-15T05:16:27;2.50;99.90
26745;DHT22;14342;50.960;13.880;2023-02-15T05:17:29;2.40;99.90
26745;DHT22;14342;50.960;13.880;2023-02-15T05:18:29;2.40;99.90
26745;DHT22;14342;50.960;13.880;2023-02-15T05:19:31;2.40;99.90
26745;DHT22;14342;50.960;13.880;2023-02-15T05:20:32;2.50;99.90
26745;DHT22;14342;50.960;13.880;2023-02-15T05:21:33;2.50;99.90
26745;DHT22;14342;50.960;13.880;2023-02-15T05:22:34;2.50;99.90
26745;DHT22;14342;50.960;13.880;2023-02-15T05:23:35;2.50;99.90
26745;DHT22;14342;50.960;13.880;2023-02-15T05:24:36;2.60;99.90
26745;DHT22;14342;50.960;13.880;2023-02-15T05:25:55;2.60;99.90
26745;DHT22;14342;50.960;13.880;2023-02-15T05:27:15;2.70;99.90
26745;DHT22;14342;50.960;13.880;2023-02-15T05:28:35;2.60;99.90
26745;DHT22;14342;50.960;13.880;2023-02-15T05:29:37;2.60;99.90
26745;DHT22;14342;50.960;13.880;2023-02-15T05:30:37;2.50;99.90
26745;DHT22;14342;50.960;13.880;2023-02-15T05:31:40;2.60;99.90
26745;DHT22;14342;50.960;13.880;2023-02-15T05:32:40;2.50;99.90
26745;DHT22;14342;50.960;13.880;2023-02-15T05:33:42;2.60;99.90
26745;DHT22;14342;50.960;13.880;2023-02-15T05:34:43;2.50;99.90
26745;DHT22;14342;50.960;13.880;2023-02-15T05:35:45;2.60;99.90
26745;DHT22;14342;50.960;13.880;2023-02-15T05:36:45;2.80;99.90
26745;DHT22;14342;50.960;13.880;2023-02-15T05:37:47;2.60;99.90
26745;DHT22;14342;50.960;13.880;2023-02-15T05:38:47;2.60;99.90
26745;DHT22;14342;50.960;13.880;2023-02-15T05:39:49;2.60;99.90
26745;DHT22;14342;50.960;13.880;2023-02-15T05:40:50;2.60;99.90
26745;DHT22;14342;50.960;13.880;2023-02-15T05:41:51;2.70;99.90
26745;DHT22;14342;50.960;13.880;2023-02-15T05:42:53;2.60;99.90
26745;DHT22;14342;50.960;13.880;2023-02-15T05:43:55;2.60;99.90
26745;DHT22;14342;50.960;13.880;2023-02-15T05:44:55;2.60;99.90
26745;DHT22;14342;50.960;13.880;2023-02-15T05:45:57;2.70;99.90
26745;DHT22;14342;50.960;13.880;2023-02-15T05:46:58;2.60;99.90
26745;DHT22;14342;50.960;13.880;2023-02-15T05:47:59;2.60;99.90
26745;DHT22;14342;50.960;13.880;2023-02-15T05:49:00;2.60;99.90
26745;DHT22;14342;50.960;13.880;2023-02-15T05:50:01;2.70;99.90
26745;DHT22;14342;50.960;13.880;2023-02-15T05:51:03;2.70;99.90
26745;DHT22;14342;50.960;13.880;2023-02-15T05:52:04;2.80;99.90
26745;DHT22;14342;50.960;13.880;2023-02-15T05:53:05;2.80;99.90
26745;DHT22;14342;50.960;13.880;2023-02-15T05:54:07;2.80;99.90
26745;DHT22;14342;50.960;13.880;2023-02-15T05:55:07;2.90;99.90
26745;DHT22;14342;50.960;13.880;2023-02-15T05:56:10;2.80;99.90
26745;DHT22;14342;50.960;13.880;2023-02-15T05:57:10;2.80;99.90
26745;DHT22;14342;50.960;13.880;2023-02-15T05:58:13;2.70;99.90
26745;DHT22;14342;50.960;13.880;2023-02-15T05:59:14;2.60;99.90
26745;DHT22;14342;50.960;13.880;2023-02-15T06:00:16;2.60;99.90
26745;DHT22;14342;50.960;13.880;2023-02-15T06:01:17;2.50;99.90
26745;DHT22;14342;50.960;13.880;2023-02-15T06:02:19;2.40;99.90
26745;DHT22;14342;50.960;13.880;2023-02-15T06:03:19;2.40;99.90
26745;DHT22;14342;50.960;13.880;2023-02-15T06:04:21;2.40;99.90
26745;DHT22;14342;50.960;13.880;2023-02-15T06:05:22;2.30;99.90
26745;DHT22;14342;50.960;13.880;2023-02-15T06:06:23;2.30;99.90
26745;DHT22;14342;50.960;13.880;2023-02-15T06:07:24;2.30;99.90
26745;DHT22;14342;50.960;13.880;2023-02-15T06:08:25;2.30;99.90
26745;DHT22;14342;50.960;13.880;2023-02-15T06:09:26;2.40;99.90
26745;DHT22;14342;50.960;13.880;2023-02-15T06:10:27;2.40;99.90
26745;DHT22;14342;50.960;13.880;2023-02-15T06:11:28;2.50;99.90
26745;DHT22;14342;50.960;13.880;2023-02-15T06:12:29;2.40;99.90
26745;DHT22;14342;50.960;13.880;2023-02-15T06:13:32;2.60;99.90
26745;DHT22;14342;50.960;13.880;2023-02-15T06:14:33;2.60;99.90
26745;DHT22;14342;50.960;13.880;2023-02-15T06:15:34;2.50;99.90
26745;DHT22;14342;50.960;13.880;2023-02-15T06:16:36;2.50;99.90
26745;DHT22;14342;50.960;13.880;2023-02-15T06:17:36;2.50;99.90
26745;DHT22;14342;50.960;13.880;2023-02-15T06:18:38;2.50;99.90
26745;DHT22;14342;50.960;13.880;2023-02-15T06:19:39;2.40;99.90
26745;DHT22;14342;50.960;13.880;2023-02-15T06:20:40;2.30;99.90
26745;DHT22;14342;50.960;13.880;2023-02-15T06:21:41;2.30;99.90
26745;DHT22;14342;50.960;13.880;2023-02-15T06:22:43;2.30;99.90
26745;DHT22;14342;50.960;13.880;2023-02-15T06:23:44;2.30;99.90
26745;DHT22;14342;50.960;13.880;2023-02-15T06:24:45;2.20;99.90
26745;DHT22;14342;50.960;13.880;2023-02-15T06:25:46;2.20;99.90
26745;DHT22;14342;50.960;13.880;2023-02-15T06:26:47;2.20;99.90
26745;DHT22;14342;50.960;13.880;2023-02-15T06:27:48;2.10;99.90
26745;DHT22;14342;50.960;13.880;2023-02-15T06:28:51;2.10;99.90
26745;DHT22;14342;50.960;13.880;2023-02-15T06:29:52;2.10;99.90
26745;DHT22;14342;50.960;13.880;2023-02-15T06:30:53;2.00;99.90
26745;DHT22;14342;50.960;13.880;2023-02-15T06:31:54;1.90;99.90
26745;DHT22;14342;50.960;13.880;2023-02-15T06:32:55;1.90;99.90
26745;DHT22;14342;50.960;13.880;2023-02-15T06:33:56;1.90;99.90
26745;DHT22;14342;50.960;13.880;2023-02-15T06:35:01;1.90;99.90
26745;DHT22;14342;50.960;13.880;2023-02-15T06:36:02;2.00;99.90
26745;DHT22;14342;50.960;13.880;2023-02-15T06:37:04;1.90;99.90
26745;DHT22;14342;50.960;13.880;2023-02-15T06:38:05;2.00;99.90
26745;DHT22;14342;50.960;13.880;2023-02-15T06:39:06;2.00;99.90
26745;DHT22;14342;50.960;13.880;2023-02-15T06:40:08;1.90;99.90
26745;DHT22;14342;50.960;13.880;2023-02-15T06:41:08;2.00;99.90
26745;DHT22;14342;50.960;13.880;2023-02-15T06:42:10;1.90;99.90
26745;DHT22;14342;50.960;13.880;2023-02-15T06:43:10;1.90;99.90
26745;DHT22;14342;50.960;13.880;2023-02-15T06:44:13;1.90;99.90
26745;DHT22;14342;50.960;13.880;2023-02-15T06:45:14;1.80;99.90